ZSU Weather Center

Puerto Rico


TJSJ 011656Z 04009KT 10SM -RA SCT036 SCT065 SCT080 29/24 A3004 RMK AO2 SLP172 P0002 T02890244

TJBQ 011650Z 05011KT 10SM CLR A3006 RMK LTG DSNT SE

TJIG 011745Z 10011KT 10SM SCT025 BKN060 29/24 A3002

TJMZ 101550Z 11009KT 10SM SCT050 33/24

TJPS 310650Z 00000KT 8SM SCT020 BKN030 22/22 A3001

 

St. Maarten


TNCM 011100Z 09007KT 9999 FEW020 28/23 Q1018 NOSIG

 

St. Thomas USVI


TIST 011653Z 12009KT 10SM FEW030 30/23 A3005 RMK AO2 SLP175 T03000228 PNO

 

St. Croix USVI


TISX 011653Z 12010KT 10SM FEW026 32/22 A3005 RMK AO2 SLP175 T03170217

 

Anguilla BVI


TQPF 011700Z 11011KT 9999 FEW021 30/22 Q1018

 

Beef Island BVI


TUPJ 011800Z 12008KT 10SM SCT020 30/23 A3005 RMK Q1017 VIS16KM

 

Sint Eustatius


METAR not Available.

 

 

 

Puerto Rico


TAF TJSJ 011720Z 0118/0218 07015KT P6SM VCSH SCT030 SCT060 FM012200 10008KT P6SM FEW035 SCT050 FM020600 12008KT P6SM VCSH FEW030 FM021200 10010KT P6SM FEW030 SCT050

TAF TJBQ 011720Z 0118/0218 08012KT P6SM VCTS SCT025CB BKN050 FM012200 10007KT P6SM VCSH FEW025 SCT050 FM020300 10005KT P6SM FEW030 SCT050 FM021200 09012KT P6SM VCSH SCT030 SCT060 AMD NOT SKED

TAF TJPS 011720Z 0118/0218 15015KT P6SM FEW030 FM012200 10006KT P6SM FEW030 FM020400 VRB05KT P6SM FEW040 FM021200 12008KT P6SM SCT030 SCT070 AMD NOT SKED TIL 020300

 

St. Maarten


TAF TNCM 011720Z 0118/0218 11008KT P6SM FEW025 FM020400 09013KT P6SM VCSH FEW030 SCT040 FM020900 10009KT P6SM BKN030

 

St. Thomas USVI


TAF TIST 011720Z 0118/0218 13014KT P6SM FEW030 FM012330 06009KT P6SM FEW025 FM020300 07008KT P6SM VCSH FEW030 SCT060 FM021200 10009KT P6SM SCT030 SCT060

 

St. Croix USVI


TAF TISX 011720Z 0118/0218 12015KT P6SM FEW025 SCT040 FM012330 05010KT P6SM FEW030 FM020800 08010KT P6SM VCSH SCT030 SCT070 FM021200 10010KT P6SM SCT030 SCT060

 

Anguilla BVI


TAF TQPF 011100Z 0112/0212 12008KT 9999 SCT022

 

Beef Island BVI


TAF AMD TUPJ 010005Z 3118/0118 CNL

 

Composite Reflectivity


 

 

Caribbean Surface Analysis